createdAt,value
2019-05-03T00:00:46.028Z,88.57
2019-05-03T00:01:46.020Z,88.17
2019-05-03T00:02:46.010Z,87.96
2019-05-03T00:03:45.998Z,87.96
2019-05-03T00:04:46.349Z,87.24
2019-05-03T00:05:46.003Z,87.65
2019-05-03T00:06:45.972Z,87.49
2019-05-03T00:07:45.949Z,86.97
2019-05-03T00:08:45.938Z,86.87
2019-05-03T00:09:45.927Z,86.05
2019-05-03T00:10:45.931Z,86.46
2019-05-03T00:11:45.909Z,86.87
2019-05-03T00:12:45.911Z,86.35
2019-05-03T00:13:45.878Z,87.38
2019-05-03T00:14:45.879Z,87.49
2019-05-03T00:15:45.878Z,87.07
2019-05-03T00:16:45.847Z,86.87
2019-05-03T00:17:45.840Z,87.07
2019-05-03T00:18:45.829Z,87.69
2019-05-03T00:19:45.816Z,87.28
2019-05-03T00:20:45.827Z,86.66
2019-05-03T00:21:45.797Z,86.66
2019-05-03T00:22:45.788Z,86.35
2019-05-03T00:23:45.781Z,86.46
2019-05-03T00:24:45.763Z,86.15
2019-05-03T00:25:45.766Z,86.25
2019-05-03T00:26:45.739Z,86.56
2019-05-03T00:27:45.751Z,87.07
2019-05-03T00:28:45.716Z,86.66
2019-05-03T00:29:45.705Z,87.32
2019-05-03T00:30:45.716Z,87.01
2019-05-03T00:31:45.686Z,87.42
2019-05-03T00:32:45.676Z,87.73
2019-05-03T00:33:45.660Z,87.52
2019-05-03T00:34:46.525Z,87.94
2019-05-03T00:35:45.662Z,87.63
2019-05-03T00:36:45.637Z,87.32
2019-05-03T00:37:45.615Z,87.22
2019-05-03T00:38:45.615Z,87.52
2019-05-03T00:39:45.595Z,87.42
2019-05-03T00:40:45.606Z,87.52
2019-05-03T00:41:45.603Z,87.84
2019-05-03T00:42:45.565Z,87.94
2019-05-03T00:43:45.545Z,88.04
2019-05-03T00:44:45.545Z,87.84
2019-05-03T00:45:45.527Z,87.94
2019-05-03T00:46:45.543Z,87.84
2019-05-03T00:47:45.505Z,88.35
2019-05-03T00:48:45.495Z,88.35
2019-05-03T00:49:45.486Z,88.66
2019-05-03T00:50:45.474Z,89.07
2019-05-03T00:51:45.475Z,89.07
2019-05-03T00:52:45.455Z,89.17
2019-05-03T00:53:45.435Z,88.86
2019-05-03T00:54:45.437Z,88.66
2019-05-03T00:55:45.424Z,89.28
2019-05-03T00:56:45.435Z,88.86
2019-05-03T00:57:45.406Z,88.66
2019-05-03T00:58:45.383Z,88.86
2019-05-03T00:59:45.377Z,89.17
2019-05-03T01:00:45.418Z,89.38
2019-05-03T01:01:45.367Z,89.07
2019-05-03T01:02:45.354Z,89.07
2019-05-03T01:03:45.346Z,89.17
2019-05-03T01:04:45.323Z,89.07
2019-05-03T01:05:45.314Z,89.38
2019-05-03T01:06:45.296Z,89.48
2019-05-03T01:07:45.308Z,89.48
2019-05-03T01:08:45.284Z,89.58
2019-05-03T01:09:45.269Z,89.58
2019-05-03T01:10:45.263Z,89.79
2019-05-03T01:11:45.246Z,89.69
2019-05-03T01:12:45.254Z,89.89
2019-05-03T01:13:45.226Z,89.58
2019-05-03T01:14:45.218Z,89.58
2019-05-03T01:15:45.203Z,89.69
2019-05-03T01:16:45.217Z,89.48
2019-05-03T01:17:45.206Z,89.58
2019-05-03T01:18:45.178Z,89.28
2019-05-03T01:19:45.156Z,89.17
2019-05-03T01:20:45.150Z,89.07
2019-05-03T01:21:45.144Z,88.76
2019-05-03T01:22:45.133Z,88.86
2019-05-03T01:23:45.122Z,88.96
2019-05-03T01:24:45.102Z,88.66
2019-05-03T01:25:45.093Z,88.66
2019-05-03T01:26:45.092Z,88.35
2019-05-03T01:27:45.102Z,88.76
2019-05-03T01:28:45.054Z,88.96
2019-05-03T01:29:45.059Z,89.38
2019-05-03T01:30:45.035Z,89.58
2019-05-03T01:31:45.036Z,89.48
2019-05-03T01:32:45.034Z,89.07
2019-05-03T01:33:45.011Z,88.66
2019-05-03T01:34:44.994Z,88.96
2019-05-03T01:35:44.994Z,88.76
2019-05-03T01:36:44.975Z,88.96
2019-05-03T01:37:44.974Z,89.28
2019-05-03T01:38:44.972Z,89.17
2019-05-03T01:39:44.936Z,89.17
2019-05-03T01:40:44.941Z,88.96
2019-05-03T01:41:44.916Z,89.48
2019-05-03T01:42:44.905Z,89.28
2019-05-03T01:43:44.914Z,89.17
2019-05-03T01:44:44.883Z,88.86
2019-05-03T01:45:44.872Z,88.86
2019-05-03T01:46:44.855Z,88.86
2019-05-03T01:47:44.847Z,89.48
2019-05-03T01:48:44.855Z,89.38
2019-05-03T01:49:44.829Z,89.17
2019-05-03T01:50:44.813Z,89.07
2019-05-03T01:51:44.803Z,89.17
2019-05-03T01:52:44.793Z,88.76
2019-05-03T01:53:44.800Z,88.76
2019-05-03T01:54:44.771Z,89.07
2019-05-03T01:55:46.531Z,89.17
2019-05-03T01:56:55.955Z,89.07
2019-05-03T01:57:45.734Z,89.13
2019-05-03T01:58:44.752Z,89.23
2019-05-03T01:59:44.722Z,88.82
2019-05-03T02:00:44.711Z,89.07
2019-05-03T02:01:44.694Z,89.23
2019-05-03T02:02:44.683Z,89.44
2019-05-03T02:03:44.684Z,89.69
2019-05-03T02:04:44.660Z,89.54
2019-05-03T02:05:44.643Z,89.85
2019-05-03T02:06:44.650Z,89.64
2019-05-03T02:07:44.632Z,89.23
2019-05-03T02:08:44.644Z,89.13
2019-05-03T02:09:44.618Z,89.54
2019-05-03T02:10:44.599Z,89.64
2019-05-03T02:11:44.582Z,89.23
2019-05-03T02:12:44.591Z,89.79
2019-05-03T02:13:44.561Z,90.00
2019-05-03T02:14:44.571Z,90.00
2019-05-03T02:15:44.532Z,90.00
2019-05-03T02:16:44.523Z,89.69
2019-05-03T02:17:44.522Z,89.58
2019-05-03T02:18:44.502Z,89.54
2019-05-03T02:19:44.511Z,89.48
2019-05-03T02:20:44.483Z,89.58
2019-05-03T02:21:44.471Z,89.79
2019-05-03T02:22:44.461Z,90.00
2019-05-03T02:23:44.442Z,90.09
2019-05-03T02:24:44.451Z,89.89
2019-05-03T02:25:55.566Z,89.58
2019-05-03T02:26:45.414Z,89.48
2019-05-03T02:27:44.402Z,90.09
2019-05-03T02:28:44.391Z,89.89
2019-05-03T02:29:44.384Z,90.09
2019-05-03T02:30:44.473Z,90.00
2019-05-03T02:31:44.359Z,90.09
2019-05-03T02:32:44.474Z,90.00
2019-05-03T02:33:44.351Z,90.26
2019-05-03T02:34:44.371Z,90.06
2019-05-03T02:35:45.260Z,90.26
2019-05-03T02:36:44.313Z,90.06
2019-05-03T02:37:44.315Z,90.06
2019-05-03T02:38:44.279Z,90.06
2019-05-03T02:39:44.271Z,89.85
2019-05-03T02:40:44.279Z,90.16
2019-05-03T02:41:47.835Z,90.26
2019-05-03T02:42:46.316Z,90.06
2019-05-03T02:43:45.232Z,90.16
2019-05-03T02:44:46.178Z,90.06
2019-05-03T02:45:45.717Z,89.95
2019-05-03T02:46:45.396Z,89.95
2019-05-03T02:47:47.024Z,90.16
2019-05-03T02:48:45.778Z,89.85
2019-05-03T02:49:45.527Z,89.54
2019-05-03T02:50:45.231Z,89.54
2019-05-03T02:51:46.063Z,89.95
2019-05-03T02:52:45.823Z,90.16
2019-05-03T02:53:45.715Z,90.06
2019-05-03T02:54:46.511Z,90.26
2019-05-03T02:55:45.478Z,90.26
2019-05-03T02:56:46.038Z,90.16
2019-05-03T02:57:46.673Z,90.16
2019-05-03T02:58:46.042Z,90.16
2019-05-03T02:59:45.279Z,90.36
2019-05-03T03:00:45.455Z,90.36
2019-05-03T03:01:46.406Z,90.26
2019-05-03T03:02:45.625Z,89.95
2019-05-03T03:03:45.750Z,90.26
2019-05-03T03:04:45.389Z,90.36
2019-05-03T03:05:46.276Z,90.26
2019-05-03T03:06:45.447Z,90.47
2019-05-03T03:07:45.976Z,90.57
2019-05-03T03:08:45.471Z,90.78
2019-05-03T03:09:45.242Z,90.67
2019-05-03T03:10:45.636Z,90.67
2019-05-03T03:11:45.758Z,90.88
2019-05-03T03:12:46.434Z,90.78
2019-05-03T03:13:45.761Z,90.67
2019-05-03T03:14:45.529Z,90.67
2019-05-03T03:15:45.814Z,90.57
2019-05-03T03:16:45.489Z,90.47
2019-05-03T03:17:45.741Z,90.47
2019-05-03T03:18:45.633Z,90.47
2019-05-03T03:19:46.196Z,90.67
2019-05-03T03:20:44.964Z,90.06
2019-05-03T03:21:46.516Z,89.85
2019-05-03T03:22:45.619Z,90.26
2019-05-03T03:23:46.107Z,90.47
2019-05-03T03:24:45.853Z,90.47
2019-05-03T03:25:46.138Z,90.47
2019-05-03T03:26:47.116Z,89.44
2019-05-03T03:27:45.309Z,89.85
2019-05-03T03:28:46.145Z,89.75
2019-05-03T03:29:45.873Z,89.54
2019-05-03T03:30:48.219Z,89.34
2019-05-03T03:31:48.129Z,89.85
2019-05-03T03:32:47.868Z,89.95
2019-05-03T03:33:47.515Z,90.26
2019-05-03T03:34:54.311Z,90.36
2019-05-03T03:35:48.878Z,90.06
2019-05-03T03:36:58.427Z,89.95
2019-05-03T03:37:46.195Z,89.64
2019-05-03T03:38:45.904Z,89.64
2019-05-03T03:39:45.745Z,89.54
2019-05-03T03:40:45.351Z,89.75
2019-05-03T03:41:45.307Z,90.06
2019-05-03T03:42:44.982Z,89.54
2019-05-03T03:43:46.093Z,89.64
2019-05-03T03:44:45.388Z,89.13
2019-05-03T03:45:45.533Z,89.13
2019-05-03T03:46:45.421Z,89.13
2019-05-03T03:47:46.252Z,89.64
2019-05-03T03:48:45.983Z,89.03
2019-05-03T03:49:46.089Z,89.03
2019-05-03T03:50:45.753Z,88.92
2019-05-03T03:51:45.488Z,89.64
2019-05-03T03:52:45.181Z,89.13
2019-05-03T03:53:46.317Z,89.03
2019-05-03T03:54:45.621Z,89.03
2019-05-03T03:55:45.792Z,89.13
2019-05-03T03:56:56.078Z,89.44
2019-05-03T03:57:46.779Z,89.13
2019-05-03T03:58:46.179Z,89.13
2019-05-03T03:59:45.406Z,89.34
2019-05-03T04:00:46.200Z,89.23
2019-05-03T04:01:45.475Z,89.03
2019-05-03T04:02:45.717Z,89.34
2019-05-03T04:03:45.779Z,89.64
2019-05-03T04:04:45.014Z,89.75
2019-05-03T04:05:46.482Z,89.75
2019-05-03T04:06:46.393Z,89.34
2019-05-03T04:07:46.186Z,89.75
2019-05-03T04:08:45.372Z,89.54
2019-05-03T04:09:45.743Z,89.54
2019-05-03T04:10:46.137Z,89.54
2019-05-03T04:11:46.164Z,89.54
2019-05-03T04:12:45.483Z,89.23
2019-05-03T04:13:45.213Z,89.34
2019-05-03T04:14:45.309Z,89.64
2019-05-03T04:15:45.362Z,89.95
2019-05-03T04:16:45.307Z,89.95
2019-05-03T04:17:45.614Z,90.06
2019-05-03T04:18:45.557Z,89.85
2019-05-03T04:19:45.461Z,90.06
2019-05-03T04:20:45.664Z,90.16
2019-05-03T04:21:45.253Z,90.16
2019-05-03T04:22:45.248Z,90.06
2019-05-03T04:23:43.113Z,90.16
2019-05-03T04:24:45.815Z,90.26
2019-05-03T04:25:45.073Z,90.57
2019-05-03T04:26:45.249Z,90.47
2019-05-03T04:27:45.322Z,89.95
2019-05-03T04:28:45.361Z,89.95
2019-05-03T04:29:45.366Z,90.36
2019-05-03T04:30:45.753Z,90.57
2019-05-03T04:31:45.595Z,90.36
2019-05-03T04:32:45.313Z,90.67
2019-05-03T04:33:45.061Z,90.26
2019-05-03T04:34:45.227Z,90.26
2019-05-03T04:35:46.310Z,90.26
2019-05-03T04:36:42.972Z,90.26
2019-05-03T04:37:45.316Z,90.36
2019-05-03T04:38:45.422Z,90.16
2019-05-03T04:39:45.343Z,90.06
2019-05-03T04:40:45.326Z,90.16
2019-05-03T04:41:45.218Z,90.47
2019-05-03T04:42:42.905Z,90.57
2019-05-03T04:43:42.893Z,90.57
2019-05-03T04:44:45.344Z,90.67
2019-05-03T04:45:45.475Z,90.57
2019-05-03T04:46:42.866Z,90.78
2019-05-03T04:47:42.846Z,90.47
2019-05-03T04:48:44.892Z,90.67
2019-05-03T04:49:42.831Z,90.36
2019-05-03T04:50:45.460Z,90.67
2019-05-03T04:51:46.244Z,91.08
2019-05-03T04:52:46.017Z,90.26
2019-05-03T04:53:45.306Z,90.36
2019-05-03T04:54:44.968Z,90.47
2019-05-03T04:55:42.775Z,90.67
2019-05-03T04:56:42.755Z,90.78
2019-05-03T04:57:46.810Z,90.06
2019-05-03T04:58:45.884Z,90.26
2019-05-03T04:59:45.002Z,90.94
2019-05-03T05:00:42.744Z,90.53
2019-05-03T05:01:42.693Z,90.01
2019-05-03T05:02:42.691Z,89.56
2019-05-03T05:03:45.516Z,89.56
2019-05-03T05:04:42.668Z,89.70
2019-05-03T05:05:45.113Z,89.60
2019-05-03T05:06:44.941Z,89.50
2019-05-03T05:07:45.390Z,89.19
2019-05-03T05:08:42.613Z,89.40
2019-05-03T05:09:45.324Z,89.19
2019-05-03T05:10:45.211Z,88.78
2019-05-03T05:11:42.581Z,89.19
2019-05-03T05:12:42.572Z,89.60
2019-05-03T05:13:42.561Z,89.60
2019-05-03T05:14:42.551Z,89.70
2019-05-03T05:15:42.554Z,89.70
2019-05-03T05:16:42.536Z,89.60
2019-05-03T05:17:42.512Z,89.70
2019-05-03T05:18:42.502Z,89.81
2019-05-03T05:19:44.491Z,89.50
2019-05-03T05:20:42.501Z,89.50
2019-05-03T05:21:44.708Z,88.98
2019-05-03T05:22:42.460Z,88.78
2019-05-03T05:23:44.339Z,88.98
2019-05-03T05:24:42.440Z,88.78
2019-05-03T05:25:44.500Z,88.84
2019-05-03T05:26:44.518Z,88.84
2019-05-03T05:27:48.839Z,88.43
2019-05-03T05:28:44.755Z,88.84
2019-05-03T05:29:42.392Z,88.84
2019-05-03T05:30:44.343Z,88.02
2019-05-03T05:31:42.381Z,88.12
2019-05-03T05:32:42.347Z,88.12
2019-05-03T05:33:44.486Z,88.33
2019-05-03T05:34:42.330Z,88.23
2019-05-03T05:35:44.298Z,88.23
2019-05-03T05:36:42.320Z,87.92
2019-05-03T05:37:44.341Z,87.88
2019-05-03T05:38:42.280Z,87.57
2019-05-03T05:39:42.287Z,87.88
2019-05-03T05:40:42.259Z,87.67
2019-05-03T05:41:42.279Z,87.77
2019-05-03T05:42:42.250Z,87.88
2019-05-03T05:43:42.232Z,87.77
2019-05-03T05:44:42.223Z,88.23
2019-05-03T05:45:42.200Z,88.12
2019-05-03T05:46:42.211Z,88.39
2019-05-03T05:47:42.182Z,88.23
2019-05-03T05:48:42.172Z,88.29
2019-05-03T05:49:44.233Z,88.39
2019-05-03T05:50:42.162Z,87.98
2019-05-03T05:51:44.339Z,88.29
2019-05-03T05:52:42.128Z,88.49
2019-05-03T05:53:42.110Z,88.59
2019-05-03T05:54:42.110Z,88.59
2019-05-03T05:55:42.100Z,88.49
2019-05-03T05:56:42.101Z,88.70
2019-05-03T05:57:42.091Z,88.18
2019-05-03T05:58:42.061Z,88.49
2019-05-03T05:59:42.061Z,88.90
2019-05-03T06:00:42.041Z,88.18
2019-05-03T06:01:42.042Z,88.29
2019-05-03T06:02:42.049Z,88.08
2019-05-03T06:03:42.009Z,88.49
2019-05-03T06:04:41.992Z,88.18
2019-05-03T06:05:41.989Z,87.77
2019-05-03T06:06:41.972Z,87.57
2019-05-03T06:07:42.050Z,87.57
2019-05-03T06:08:41.959Z,87.46
2019-05-03T06:09:41.940Z,87.77
2019-05-03T06:10:41.939Z,87.98
2019-05-03T06:11:41.919Z,88.08
2019-05-03T06:12:41.921Z,88.39
2019-05-03T06:13:41.901Z,88.39
2019-05-03T06:14:41.890Z,88.66
2019-05-03T06:15:41.890Z,88.14
2019-05-03T06:16:41.876Z,88.04
2019-05-03T06:17:41.890Z,88.04
2019-05-03T06:18:41.843Z,87.43
2019-05-03T06:19:41.832Z,87.02
2019-05-03T06:20:41.819Z,87.32
2019-05-03T06:21:41.807Z,87.53
2019-05-03T06:22:41.811Z,87.12
2019-05-03T06:23:41.899Z,87.53
2019-05-03T06:24:41.786Z,87.53
2019-05-03T06:25:41.771Z,87.63
2019-05-03T06:26:41.758Z,87.63
2019-05-03T06:27:41.742Z,87.22
2019-05-03T06:28:41.820Z,87.43
2019-05-03T06:29:41.718Z,87.94
2019-05-03T06:30:41.709Z,87.94
2019-05-03T06:31:41.696Z,87.94
2019-05-03T06:32:41.688Z,87.84
2019-05-03T06:33:41.699Z,88.45
2019-05-03T06:34:41.669Z,87.73
2019-05-03T06:35:41.658Z,87.84
2019-05-03T06:36:41.702Z,88.29
2019-05-03T06:37:41.639Z,88.18
2019-05-03T06:38:42.326Z,88.18
2019-05-03T06:39:41.627Z,88.39
2019-05-03T06:40:41.598Z,88.49
2019-05-03T06:41:41.588Z,89.01
2019-05-03T06:42:52.502Z,88.29
2019-05-03T06:43:47.160Z,88.70
2019-05-03T06:44:42.569Z,88.70
2019-05-03T06:45:46.695Z,88.59
2019-05-03T06:46:42.538Z,88.49
2019-05-03T06:47:45.981Z,88.49
2019-05-03T06:48:44.354Z,88.29
2019-05-03T06:49:44.793Z,88.39
2019-05-03T06:50:42.498Z,87.98
2019-05-03T06:51:45.622Z,87.88
2019-05-03T06:52:44.414Z,88.08
2019-05-03T06:53:41.815Z,88.39
2019-05-03T06:54:41.486Z,88.14
2019-05-03T06:55:46.891Z,87.94
2019-05-03T06:56:42.423Z,87.79
2019-05-03T06:57:45.636Z,86.77
2019-05-03T06:58:42.407Z,87.08
2019-05-03T06:59:41.416Z,86.46
2019-05-03T07:00:41.386Z,86.32
2019-05-03T07:01:41.366Z,86.32
2019-05-03T07:02:41.362Z,85.87
2019-05-03T07:03:41.365Z,85.25
2019-05-03T07:04:41.419Z,84.19
2019-05-03T07:05:41.326Z,83.78
2019-05-03T07:06:41.307Z,83.68
2019-05-03T07:07:41.320Z,83.37
2019-05-03T07:08:41.296Z,84.09
2019-05-03T07:09:41.296Z,84.23
2019-05-03T07:10:41.327Z,84.03
2019-05-03T07:11:41.256Z,84.33
2019-05-03T07:12:41.246Z,85.05
2019-05-03T07:13:41.264Z,84.53
2019-05-03T07:14:41.224Z,85.50
2019-05-03T07:15:41.236Z,85.80
2019-05-03T07:16:41.213Z,86.01
2019-05-03T07:17:41.193Z,86.42
2019-05-03T07:18:41.178Z,86.11
2019-05-03T07:19:41.175Z,86.42
2019-05-03T07:20:41.197Z,86.73
2019-05-03T07:21:41.176Z,87.14
2019-05-03T07:22:41.135Z,85.71
2019-05-03T07:23:41.126Z,85.39
2019-05-03T07:24:41.137Z,86.01
2019-05-03T07:25:41.105Z,86.63
2019-05-03T07:26:41.163Z,87.38
2019-05-03T07:27:41.086Z,87.70
2019-05-03T07:28:47.037Z,87.08
2019-05-03T07:29:42.055Z,87.79
2019-05-03T07:30:41.053Z,87.49
2019-05-03T07:31:41.061Z,86.98
2019-05-03T07:32:41.032Z,87.59
2019-05-03T07:33:41.033Z,87.90
2019-05-03T07:34:41.016Z,88.10
2019-05-03T07:35:41.005Z,87.73
2019-05-03T07:36:41.014Z,88.14
2019-05-03T07:37:40.986Z,88.14
2019-05-03T07:38:40.964Z,88.96
2019-05-03T07:39:40.958Z,88.86
2019-05-03T07:40:40.976Z,89.58
2019-05-03T07:41:40.961Z,89.89
2019-05-03T07:42:40.936Z,89.31
2019-05-03T07:43:40.913Z,89.31
2019-05-03T07:44:40.895Z,89.21
2019-05-03T07:45:40.884Z,89.31
2019-05-03T07:46:40.887Z,89.62
2019-05-03T07:47:40.893Z,89.72
2019-05-03T07:48:40.867Z,89.62
2019-05-03T07:49:40.833Z,89.52
2019-05-03T07:50:40.842Z,89.72
2019-05-03T07:51:40.834Z,89.93
2019-05-03T07:52:40.823Z,90.24
2019-05-03T07:53:40.803Z,89.83
2019-05-03T07:54:40.783Z,90.24
2019-05-03T07:55:40.773Z,90.34
2019-05-03T07:56:40.763Z,90.44
2019-05-03T07:57:40.775Z,90.03
2019-05-03T07:58:40.747Z,89.62
2019-05-03T07:59:40.739Z,90.24
2019-05-03T08:00:40.722Z,90.75
2019-05-03T08:01:40.713Z,89.93
2019-05-03T08:02:40.714Z,90.03
2019-05-03T08:03:40.726Z,89.62
2019-05-03T08:04:40.683Z,90.03
2019-05-03T08:05:40.663Z,89.99
2019-05-03T08:06:40.663Z,89.37
2019-05-03T08:07:40.642Z,89.48
2019-05-03T08:08:40.657Z,89.17
2019-05-03T08:09:40.644Z,89.37
2019-05-03T08:10:40.673Z,89.37
2019-05-03T08:11:40.603Z,89.07
2019-05-03T08:12:40.593Z,89.27
2019-05-03T08:13:40.613Z,89.37
2019-05-03T08:14:40.580Z,89.78
2019-05-03T08:15:40.555Z,90.20
2019-05-03T08:16:40.544Z,90.71
2019-05-03T08:17:40.533Z,89.95
2019-05-03T08:18:40.542Z,89.33
2019-05-03T08:19:40.507Z,89.54
2019-05-03T08:20:40.503Z,88.62
2019-05-03T08:21:40.512Z,88.10
2019-05-03T08:22:40.486Z,87.90
2019-05-03T08:23:40.530Z,87.79
2019-05-03T08:24:40.462Z,87.08
2019-05-03T08:25:40.442Z,87.76
2019-05-03T08:26:40.440Z,87.45
2019-05-03T08:27:40.420Z,85.80
2019-05-03T08:28:40.444Z,86.69
2019-05-03T08:29:40.421Z,86.14
2019-05-03T08:30:40.391Z,85.42
2019-05-03T08:31:40.374Z,85.79
2019-05-03T08:32:40.378Z,85.64
2019-05-03T08:33:40.354Z,85.30
2019-05-03T08:34:41.271Z,82.13
2019-05-03T08:35:40.329Z,81.62
2019-05-03T08:36:40.319Z,82.60
2019-05-03T08:37:40.313Z,83.42
2019-05-03T08:38:40.298Z,81.17
2019-05-03T08:39:40.302Z,80.46
2019-05-03T08:40:40.280Z,79.60
2019-05-03T08:41:40.272Z,78.99
2019-05-03T08:42:40.251Z,80.83
2019-05-03T08:43:40.255Z,79.39
2019-05-03T08:44:40.251Z,79.05
2019-05-03T08:45:40.222Z,78.17
2019-05-03T08:46:40.211Z,79.60
2019-05-03T08:47:40.202Z,80.28
2019-05-03T08:48:40.191Z,77.72
2019-05-03T08:49:40.181Z,77.11
2019-05-03T08:50:40.203Z,79.16
2019-05-03T08:51:40.163Z,77.93
2019-05-03T08:52:40.143Z,78.03
2019-05-03T08:53:40.134Z,78.17
2019-05-03T08:54:40.131Z,77.76
2019-05-03T08:55:40.130Z,77.90
2019-05-03T08:56:40.113Z,78.72
2019-05-03T08:57:40.091Z,80.05
2019-05-03T08:58:40.081Z,80.35
2019-05-03T08:59:40.068Z,78.92
2019-05-03T09:00:40.084Z,78.75
2019-05-03T09:01:40.070Z,78.24
2019-05-03T09:02:40.041Z,79.47
2019-05-03T09:03:40.021Z,78.24
2019-05-03T09:04:43.068Z,79.33
2019-05-03T09:05:40.022Z,77.22
2019-05-03T09:06:40.001Z,77.63
2019-05-03T09:07:39.982Z,77.22
2019-05-03T09:08:39.971Z,77.83
2019-05-03T09:09:39.960Z,78.34
2019-05-03T09:10:39.982Z,78.24
2019-05-03T09:11:39.953Z,77.83
2019-05-03T09:12:39.921Z,77.94
2019-05-03T09:13:39.924Z,78.08
2019-05-03T09:14:45.538Z,79.41
2019-05-03T09:15:40.910Z,79.41
2019-05-03T09:16:39.910Z,79.54
2019-05-03T09:17:39.898Z,81.18
2019-05-03T09:18:39.882Z,81.43
2019-05-03T09:19:39.853Z,81.63
2019-05-03T09:20:39.837Z,81.73
2019-05-03T09:21:39.848Z,82.96
2019-05-03T09:22:39.818Z,83.68
2019-05-03T09:23:39.811Z,83.27
2019-05-03T09:24:39.818Z,83.31
2019-05-03T09:25:39.780Z,83.20
2019-05-03T09:26:39.790Z,82.69
2019-05-03T09:27:39.760Z,83.41
2019-05-03T09:28:39.750Z,84.12
2019-05-03T09:29:43.427Z,84.74
2019-05-03T09:30:40.741Z,85.05
2019-05-03T09:31:39.737Z,85.05
2019-05-03T09:32:39.712Z,84.33
2019-05-03T09:33:39.690Z,84.95
2019-05-03T09:34:39.689Z,84.91
2019-05-03T09:35:39.679Z,84.70
2019-05-03T09:36:39.679Z,84.60
2019-05-03T09:37:39.658Z,84.09
2019-05-03T09:38:40.552Z,84.09
2019-05-03T09:39:39.628Z,82.96
2019-05-03T09:40:39.654Z,83.06
2019-05-03T09:41:39.628Z,83.47
2019-05-03T09:42:39.654Z,83.06
2019-05-03T09:43:39.582Z,82.96
2019-05-03T09:44:39.569Z,82.45
2019-05-03T09:45:39.560Z,82.28
2019-05-03T09:46:39.561Z,82.42
2019-05-03T09:47:39.559Z,82.63
2019-05-03T09:48:39.528Z,83.14
2019-05-03T09:49:39.519Z,83.39
2019-05-03T09:50:39.518Z,84.41
2019-05-03T09:51:39.508Z,85.74
2019-05-03T09:52:39.512Z,85.95
2019-05-03T09:53:39.477Z,86.05
2019-05-03T09:54:39.469Z,86.15
2019-05-03T09:55:39.458Z,86.15
2019-05-03T09:56:45.718Z,86.60
2019-05-03T09:57:40.448Z,86.30
2019-05-03T09:58:39.439Z,86.81
2019-05-03T09:59:39.408Z,87.63
2019-05-03T10:00:39.402Z,86.98
2019-05-03T10:01:39.386Z,86.25
2019-05-03T10:02:39.388Z,86.87
2019-05-03T10:03:39.370Z,86.57
2019-05-03T10:04:39.390Z,86.57
2019-05-03T10:05:39.352Z,86.36
2019-05-03T10:06:39.328Z,86.57
2019-05-03T10:07:39.338Z,86.87
2019-05-03T10:08:39.319Z,86.25
2019-05-03T10:09:39.307Z,86.01
2019-05-03T10:10:39.293Z,85.09
2019-05-03T10:11:39.268Z,85.77
2019-05-03T10:12:39.378Z,83.45
2019-05-03T10:13:41.839Z,84.06
2019-05-03T10:14:39.245Z,83.86
2019-05-03T10:15:39.235Z,84.47
2019-05-03T10:16:39.230Z,83.82
2019-05-03T10:17:39.226Z,83.20
2019-05-03T10:18:39.198Z,83.61
2019-05-03T10:19:40.521Z,82.90
2019-05-03T10:20:39.180Z,81.98
2019-05-03T10:21:39.168Z,83.31
2019-05-03T10:22:39.178Z,83.00
2019-05-03T10:23:39.161Z,82.79
2019-05-03T10:24:39.129Z,82.79
2019-05-03T10:25:40.430Z,81.36
2019-05-03T10:26:39.117Z,81.36
2019-05-03T10:27:39.165Z,79.52
2019-05-03T10:28:39.091Z,78.59
2019-05-03T10:29:39.075Z,79.55
2019-05-03T10:30:39.072Z,81.26
2019-05-03T10:31:39.057Z,81.36
2019-05-03T10:32:39.058Z,81.46
2019-05-03T10:33:39.038Z,78.80
2019-05-03T10:34:39.028Z,77.67
2019-05-03T10:35:39.015Z,78.76
2019-05-03T10:36:38.999Z,77.53
2019-05-03T10:37:39.019Z,79.07
2019-05-03T10:38:38.978Z,77.33
2019-05-03T10:39:38.979Z,78.86
2019-05-03T10:40:38.956Z,79.48
2019-05-03T10:41:38.945Z,78.66
2019-05-03T10:42:38.948Z,78.35
2019-05-03T10:43:38.938Z,79.27
2019-05-03T10:44:38.915Z,78.56
2019-05-03T10:45:38.904Z,79.89
2019-05-03T10:46:39.078Z,79.68
2019-05-03T10:47:38.876Z,79.07
2019-05-03T10:48:38.897Z,76.72
2019-05-03T10:49:38.856Z,77.73
2019-05-03T10:50:38.856Z,78.15
2019-05-03T10:51:38.836Z,79.58
2019-05-03T10:52:38.849Z,80.36
2019-05-03T10:53:38.828Z,80.02
2019-05-03T10:54:38.804Z,79.20
2019-05-03T10:55:38.795Z,76.64
2019-05-03T10:56:38.796Z,76.54
2019-05-03T10:57:38.767Z,76.34
2019-05-03T10:58:38.778Z,75.68
2019-05-03T10:59:38.745Z,76.91
2019-05-03T11:00:44.976Z,76.30
2019-05-03T11:01:39.736Z,77.73
2019-05-03T11:02:38.717Z,77.53
2019-05-03T11:03:38.717Z,77.12
2019-05-03T11:04:39.648Z,77.73
2019-05-03T11:05:38.676Z,77.42
2019-05-03T11:06:38.670Z,76.78
2019-05-03T11:07:38.674Z,76.78
2019-05-03T11:08:38.676Z,76.03
2019-05-03T11:09:48.576Z,75.71
2019-05-03T11:10:39.644Z,74.90
2019-05-03T11:11:38.617Z,75.51
2019-05-03T11:12:38.606Z,75.78
2019-05-03T11:13:38.600Z,73.54
2019-05-03T11:14:38.608Z,73.23
2019-05-03T11:15:38.575Z,74.87
2019-05-03T11:16:38.556Z,72.82
2019-05-03T11:17:38.546Z,72.65
2019-05-03T11:18:38.545Z,73.64
2019-05-03T11:19:38.548Z,73.44
2019-05-03T11:20:38.515Z,72.52
2019-05-03T11:21:38.504Z,73.23
2019-05-03T11:22:38.496Z,72.72
2019-05-03T11:23:38.486Z,72.82
2019-05-03T11:24:38.493Z,71.39
2019-05-03T11:25:38.463Z,72.41
2019-05-03T11:26:39.374Z,73.10
2019-05-03T11:27:38.436Z,72.17
2019-05-03T11:28:38.424Z,70.34
2019-05-03T11:29:38.446Z,70.75
2019-05-03T11:30:38.406Z,70.98
2019-05-03T11:31:38.396Z,70.85
2019-05-03T11:32:38.374Z,71.36
2019-05-03T11:33:38.378Z,71.59
2019-05-03T11:34:39.374Z,72.21
2019-05-03T11:35:38.364Z,71.77
2019-05-03T11:36:38.344Z,72.58
2019-05-03T11:37:38.333Z,72.14
2019-05-03T11:38:38.314Z,71.22
2019-05-03T11:39:38.306Z,70.98
2019-05-03T11:40:38.316Z,70.37
2019-05-03T11:41:38.303Z,69.35
2019-05-03T11:42:38.276Z,69.35
2019-05-03T11:43:38.263Z,69.15
2019-05-03T11:44:38.251Z,70.27
2019-05-03T11:45:38.236Z,69.66
2019-05-03T11:46:38.263Z,70.24
2019-05-03T11:47:38.226Z,69.42
2019-05-03T11:48:38.207Z,68.10
2019-05-03T11:49:38.197Z,67.59
2019-05-03T11:50:38.186Z,67.18
2019-05-03T11:51:38.176Z,66.77
2019-05-03T11:52:38.179Z,66.06
2019-05-03T11:53:38.186Z,66.27
2019-05-03T11:54:38.153Z,66.36
2019-05-03T11:55:38.127Z,66.36
2019-05-03T11:56:38.166Z,68.20
2019-05-03T11:57:38.105Z,66.50
2019-05-03T11:58:38.128Z,67.41
2019-05-03T11:59:38.103Z,66.53
2019-05-03T12:00:38.075Z,66.94
2019-05-03T12:01:38.065Z,66.77
2019-05-03T12:02:38.066Z,68.33
2019-05-03T12:03:38.044Z,69.04
2019-05-03T12:04:38.346Z,69.24
2019-05-03T12:05:38.037Z,69.59
2019-05-03T12:06:38.059Z,69.28
2019-05-03T12:07:39.898Z,70.23
2019-05-03T12:08:37.985Z,70.54
2019-05-03T12:09:37.992Z,71.39
2019-05-03T12:10:53.397Z,72.92
2019-05-03T12:11:38.969Z,72.82
2019-05-03T12:12:37.952Z,73.33
2019-05-03T12:13:37.957Z,74.08
2019-05-03T12:14:37.915Z,74.08
2019-05-03T12:15:37.931Z,73.98
2019-05-03T12:17:11.972Z,74.19
2019-05-03T12:17:50.956Z,74.63
2019-05-03T12:18:49.227Z,74.84
2019-05-03T12:19:40.106Z,74.84
2019-05-03T12:20:39.205Z,75.35
2019-05-03T12:21:39.189Z,75.76
2019-05-03T12:22:38.459Z,75.07
2019-05-03T12:23:38.282Z,75.89
2019-05-03T12:24:38.290Z,75.82
2019-05-03T12:25:38.436Z,76.24
2019-05-03T12:26:43.743Z,76.14
2019-05-03T12:27:38.776Z,77.81
2019-05-03T12:28:37.769Z,78.12
2019-05-03T12:29:37.755Z,77.09
2019-05-03T12:30:37.747Z,77.74
2019-05-03T12:31:40.567Z,79.08
2019-05-03T12:32:37.724Z,80.10
2019-05-03T12:33:37.706Z,80.31
2019-05-03T12:34:37.703Z,80.62
2019-05-03T12:35:37.686Z,80.21
2019-05-03T12:36:39.117Z,80.51
2019-05-03T12:37:37.674Z,81.23
2019-05-03T12:38:37.656Z,81.64
2019-05-03T12:39:37.645Z,82.26
2019-05-03T12:40:37.626Z,81.54
2019-05-03T12:41:37.652Z,81.64
2019-05-03T12:42:37.613Z,81.54
2019-05-03T12:43:37.655Z,81.95
2019-05-03T12:44:37.593Z,81.95
2019-05-03T12:45:37.584Z,81.43
2019-05-03T12:46:37.585Z,81.64
2019-05-03T12:47:37.554Z,81.57
2019-05-03T12:48:37.546Z,81.48
2019-05-03T12:49:37.536Z,81.37
2019-05-03T12:50:37.909Z,81.88
2019-05-03T12:51:37.537Z,82.33
2019-05-03T12:52:49.649Z,81.92